sensor_id;sensor_type;location;lat;lon;timestamp;P1;durP1;ratioP1;P2;durP2;ratioP2
14118;SDS011;7138;49.246;9.100;2023-01-15T00:00:51;3.38;;;1.02;;
14118;SDS011;7138;49.246;9.100;2023-01-15T00:03:17;1.40;;;0.43;;
14118;SDS011;7138;49.246;9.100;2023-01-15T00:05:43;3.83;;;1.00;;
14118;SDS011;7138;49.246;9.100;2023-01-15T00:08:08;2.42;;;0.68;;
14118;SDS011;7138;49.246;9.100;2023-01-15T00:10:34;4.97;;;0.90;;
14118;SDS011;7138;49.246;9.100;2023-01-15T00:13:00;1.20;;;0.25;;
14118;SDS011;7138;49.246;9.100;2023-01-15T00:15:26;1.05;;;0.35;;
14118;SDS011;7138;49.246;9.100;2023-01-15T00:17:54;3.05;;;0.65;;
14118;SDS011;7138;49.246;9.100;2023-01-15T00:20:19;1.10;;;0.28;;
14118;SDS011;7138;49.246;9.100;2023-01-15T00:22:45;2.10;;;0.50;;
14118;SDS011;7138;49.246;9.100;2023-01-15T00:25:11;2.15;;;0.60;;
14118;SDS011;7138;49.246;9.100;2023-01-15T00:27:56;1.83;;;0.60;;
14118;SDS011;7138;49.246;9.100;2023-01-15T00:30:22;2.03;;;0.30;;
14118;SDS011;7138;49.246;9.100;2023-01-15T00:32:49;0.52;;;0.20;;
14118;SDS011;7138;49.246;9.100;2023-01-15T00:35:17;2.55;;;0.68;;
14118;SDS011;7138;49.246;9.100;2023-01-15T00:37:45;1.13;;;0.40;;
14118;SDS011;7138;49.246;9.100;2023-01-15T00:40:12;1.67;;;0.50;;
14118;SDS011;7138;49.246;9.100;2023-01-15T00:42:40;0.90;;;0.30;;
14118;SDS011;7138;49.246;9.100;2023-01-15T00:45:06;2.47;;;0.60;;
14118;SDS011;7138;49.246;9.100;2023-01-15T00:47:34;2.63;;;0.80;;
14118;SDS011;7138;49.246;9.100;2023-01-15T00:50:00;1.55;;;0.50;;
14118;SDS011;7138;49.246;9.100;2023-01-15T00:52:28;1.42;;;0.40;;
14118;SDS011;7138;49.246;9.100;2023-01-15T00:54:54;1.08;;;0.38;;
14118;SDS011;7138;49.246;9.100;2023-01-15T00:57:20;2.83;;;0.90;;
14118;SDS011;7138;49.246;9.100;2023-01-15T00:59:46;3.10;;;0.95;;
14118;SDS011;7138;49.246;9.100;2023-01-15T01:02:12;1.15;;;0.35;;
14118;SDS011;7138;49.246;9.100;2023-01-15T01:04:37;1.02;;;0.30;;
14118;SDS011;7138;49.246;9.100;2023-01-15T01:07:03;0.82;;;0.30;;
14118;SDS011;7138;49.246;9.100;2023-01-15T01:09:31;0.75;;;0.20;;
14118;SDS011;7138;49.246;9.100;2023-01-15T01:11:57;2.38;;;0.80;;
14118;SDS011;7138;49.246;9.100;2023-01-15T01:14:22;1.73;;;0.25;;
14118;SDS011;7138;49.246;9.100;2023-01-15T01:16:48;0.60;;;0.10;;
14118;SDS011;7138;49.246;9.100;2023-01-15T01:19:14;0.40;;;0.13;;
14118;SDS011;7138;49.246;9.100;2023-01-15T01:21:43;1.30;;;0.20;;
14118;SDS011;7138;49.246;9.100;2023-01-15T01:24:10;0.38;;;0.10;;
14118;SDS011;7138;49.246;9.100;2023-01-15T01:26:40;1.25;;;0.50;;
14118;SDS011;7138;49.246;9.100;2023-01-15T01:29:09;0.82;;;0.20;;
14118;SDS011;7138;49.246;9.100;2023-01-15T01:31:37;0.13;;;0.10;;
14118;SDS011;7138;49.246;9.100;2023-01-15T01:34:03;0.68;;;0.20;;
14118;SDS011;7138;49.246;9.100;2023-01-15T01:36:29;0.30;;;0.10;;
14118;SDS011;7138;49.246;9.100;2023-01-15T01:38:57;2.28;;;0.40;;
14118;SDS011;7138;49.246;9.100;2023-01-15T01:41:24;1.17;;;0.10;;
14118;SDS011;7138;49.246;9.100;2023-01-15T01:43:54;1.17;;;0.10;;
14118;SDS011;7138;49.246;9.100;2023-01-15T01:46:24;0.65;;;0.10;;
14118;SDS011;7138;49.246;9.100;2023-01-15T01:48:52;0.90;;;0.10;;
14118;SDS011;7138;49.246;9.100;2023-01-15T01:51:24;0.25;;;0.10;;
14118;SDS011;7138;49.246;9.100;2023-01-15T01:53:54;0.55;;;0.10;;
14118;SDS011;7138;49.246;9.100;2023-01-15T01:56:22;0.28;;;0.10;;
14118;SDS011;7138;49.246;9.100;2023-01-15T01:58:49;1.17;;;0.20;;
14118;SDS011;7138;49.246;9.100;2023-01-15T02:01:19;0.52;;;0.20;;
14118;SDS011;7138;49.246;9.100;2023-01-15T02:03:49;0.45;;;0.10;;
14118;SDS011;7138;49.246;9.100;2023-01-15T02:06:15;0.80;;;0.20;;
14118;SDS011;7138;49.246;9.100;2023-01-15T02:08:41;1.13;;;0.20;;
14118;SDS011;7138;49.246;9.100;2023-01-15T02:11:09;0.43;;;0.10;;
14118;SDS011;7138;49.246;9.100;2023-01-15T02:13:42;0.68;;;0.20;;
14118;SDS011;7138;49.246;9.100;2023-01-15T02:16:22;0.30;;;0.10;;
14118;SDS011;7138;49.246;9.100;2023-01-15T02:18:57;1.02;;;0.15;;
14118;SDS011;7138;49.246;9.100;2023-01-15T02:21:40;0.65;;;0.20;;
14118;SDS011;7138;49.246;9.100;2023-01-15T02:24:21;0.65;;;0.20;;
14118;SDS011;7138;49.246;9.100;2023-01-15T02:27:03;0.65;;;0.20;;
14118;SDS011;7138;49.246;9.100;2023-01-15T02:29:37;0.50;;;0.15;;
14118;SDS011;7138;49.246;9.100;2023-01-15T02:32:14;0.57;;;0.10;;
14118;SDS011;7138;49.246;9.100;2023-01-15T02:34:49;1.35;;;0.32;;
14118;SDS011;7138;49.246;9.100;2023-01-15T02:37:22;1.38;;;0.10;;
14118;SDS011;7138;49.246;9.100;2023-01-15T02:39:54;0.10;;;0.10;;
14118;SDS011;7138;49.246;9.100;2023-01-15T02:42:24;0.20;;;0.03;;
14118;SDS011;7138;49.246;9.100;2023-01-15T02:44:54;1.08;;;0.10;;
14118;SDS011;7138;49.246;9.100;2023-01-15T02:47:26;0.55;;;0.13;;
14118;SDS011;7138;49.246;9.100;2023-01-15T02:50:00;0.40;;;0.10;;
14118;SDS011;7138;49.246;9.100;2023-01-15T02:52:31;0.20;;;0.10;;
14118;SDS011;7138;49.246;9.100;2023-01-15T02:55:04;0.05;;;0.00;;
14118;SDS011;7138;49.246;9.100;2023-01-15T02:57:36;0.70;;;0.10;;
14118;SDS011;7138;49.246;9.100;2023-01-15T03:00:08;2.05;;;0.10;;
14118;SDS011;7138;49.246;9.100;2023-01-15T03:02:41;0.28;;;0.00;;
14118;SDS011;7138;49.246;9.100;2023-01-15T03:05:12;0.70;;;0.13;;
14118;SDS011;7138;49.246;9.100;2023-01-15T03:07:49;0.80;;;0.10;;
14118;SDS011;7138;49.246;9.100;2023-01-15T03:10:19;0.20;;;0.00;;
14118;SDS011;7138;49.246;9.100;2023-01-15T03:12:58;0.20;;;0.03;;
14118;SDS011;7138;49.246;9.100;2023-01-15T03:15:27;1.38;;;0.22;;
14118;SDS011;7138;49.246;9.100;2023-01-15T03:18:27;1.40;;;0.00;;
14118;SDS011;7138;49.246;9.100;2023-01-15T03:21:01;1.65;;;0.10;;
14118;SDS011;7138;49.246;9.100;2023-01-15T03:23:34;0.13;;;0.00;;
14118;SDS011;7138;49.246;9.100;2023-01-15T03:26:03;0.03;;;0.03;;
14118;SDS011;7138;49.246;9.100;2023-01-15T03:28:31;0.10;;;0.00;;
14118;SDS011;7138;49.246;9.100;2023-01-15T03:31:03;0.08;;;0.03;;
14118;SDS011;7138;49.246;9.100;2023-01-15T03:33:29;0.50;;;0.08;;
14118;SDS011;7138;49.246;9.100;2023-01-15T03:35:56;0.52;;;0.10;;
14118;SDS011;7138;49.246;9.100;2023-01-15T03:38:24;0.10;;;0.10;;
14118;SDS011;7138;49.246;9.100;2023-01-15T03:43:32;0.20;;;0.05;;
14118;SDS011;7138;49.246;9.100;2023-01-15T03:46:17;0.25;;;0.10;;
14118;SDS011;7138;49.246;9.100;2023-01-15T03:49:03;0.47;;;0.10;;
14118;SDS011;7138;49.246;9.100;2023-01-15T03:51:43;0.15;;;0.08;;
14118;SDS011;7138;49.246;9.100;2023-01-15T03:54:24;0.10;;;0.00;;
14118;SDS011;7138;49.246;9.100;2023-01-15T03:57:01;0.55;;;0.10;;
14118;SDS011;7138;49.246;9.100;2023-01-15T03:59:36;0.88;;;0.10;;
14118;SDS011;7138;49.246;9.100;2023-01-15T04:02:11;0.10;;;0.00;;
14118;SDS011;7138;49.246;9.100;2023-01-15T04:04:40;1.45;;;0.17;;
14118;SDS011;7138;49.246;9.100;2023-01-15T04:07:10;0.63;;;0.10;;
14118;SDS011;7138;49.246;9.100;2023-01-15T04:09:37;0.50;;;0.10;;
14118;SDS011;7138;49.246;9.100;2023-01-15T04:12:04;1.50;;;0.10;;
14118;SDS011;7138;49.246;9.100;2023-01-15T04:14:31;0.60;;;0.10;;
14118;SDS011;7138;49.246;9.100;2023-01-15T04:16:59;0.15;;;0.10;;
14118;SDS011;7138;49.246;9.100;2023-01-15T04:19:25;0.73;;;0.20;;
14118;SDS011;7138;49.246;9.100;2023-01-15T04:21:51;0.65;;;0.20;;
14118;SDS011;7138;49.246;9.100;2023-01-15T04:24:17;1.15;;;0.25;;
14118;SDS011;7138;49.246;9.100;2023-01-15T04:26:43;0.03;;;0.00;;
14118;SDS011;7138;49.246;9.100;2023-01-15T04:29:09;1.27;;;0.32;;
14118;SDS011;7138;49.246;9.100;2023-01-15T04:31:34;0.40;;;0.10;;
14118;SDS011;7138;49.246;9.100;2023-01-15T04:34:02;0.10;;;0.10;;
14118;SDS011;7138;49.246;9.100;2023-01-15T04:36:28;1.35;;;0.10;;
14118;SDS011;7138;49.246;9.100;2023-01-15T04:38:54;0.25;;;0.00;;
14118;SDS011;7138;49.246;9.100;2023-01-15T04:41:22;0.38;;;0.10;;
14118;SDS011;7138;49.246;9.100;2023-01-15T04:44:06;1.65;;;0.10;;
14118;SDS011;7138;49.246;9.100;2023-01-15T04:46:33;1.30;;;0.20;;
14118;SDS011;7138;49.246;9.100;2023-01-15T04:49:02;0.90;;;0.05;;
14118;SDS011;7138;49.246;9.100;2023-01-15T04:51:28;0.10;;;0.10;;
14118;SDS011;7138;49.246;9.100;2023-01-15T04:53:54;0.57;;;0.10;;
14118;SDS011;7138;49.246;9.100;2023-01-15T04:56:20;0.10;;;0.10;;
14118;SDS011;7138;49.246;9.100;2023-01-15T04:58:46;0.30;;;0.10;;
14118;SDS011;7138;49.246;9.100;2023-01-15T05:01:12;1.20;;;0.10;;
14118;SDS011;7138;49.246;9.100;2023-01-15T05:03:39;0.47;;;0.10;;
14118;SDS011;7138;49.246;9.100;2023-01-15T05:06:07;0.13;;;0.00;;
14118;SDS011;7138;49.246;9.100;2023-01-15T05:08:34;0.10;;;0.03;;
14118;SDS011;7138;49.246;9.100;2023-01-15T05:11:01;0.05;;;0.05;;
14118;SDS011;7138;49.246;9.100;2023-01-15T05:13:28;0.20;;;0.10;;
14118;SDS011;7138;49.246;9.100;2023-01-15T05:15:56;0.43;;;0.10;;
14118;SDS011;7138;49.246;9.100;2023-01-15T05:18:22;0.77;;;0.10;;
14118;SDS011;7138;49.246;9.100;2023-01-15T05:20:47;0.20;;;0.10;;
14118;SDS011;7138;49.246;9.100;2023-01-15T05:23:16;0.57;;;0.20;;
14118;SDS011;7138;49.246;9.100;2023-01-15T05:25:42;0.80;;;0.20;;
14118;SDS011;7138;49.246;9.100;2023-01-15T05:28:08;0.70;;;0.20;;
14118;SDS011;7138;49.246;9.100;2023-01-15T05:30:34;1.25;;;0.20;;
14118;SDS011;7138;49.246;9.100;2023-01-15T05:33:00;0.32;;;0.20;;
14118;SDS011;7138;49.246;9.100;2023-01-15T05:35:26;1.70;;;0.20;;
14118;SDS011;7138;49.246;9.100;2023-01-15T05:37:52;0.40;;;0.20;;
14118;SDS011;7138;49.246;9.100;2023-01-15T05:40:19;0.30;;;0.20;;
14118;SDS011;7138;49.246;9.100;2023-01-15T05:42:44;0.28;;;0.15;;
14118;SDS011;7138;49.246;9.100;2023-01-15T05:45:10;0.32;;;0.20;;
14118;SDS011;7138;49.246;9.100;2023-01-15T05:47:36;1.05;;;0.30;;
14118;SDS011;7138;49.246;9.100;2023-01-15T05:50:02;0.50;;;0.20;;
14118;SDS011;7138;49.246;9.100;2023-01-15T05:52:29;3.15;;;0.30;;
14118;SDS011;7138;49.246;9.100;2023-01-15T05:54:55;1.42;;;0.30;;
14118;SDS011;7138;49.246;9.100;2023-01-15T05:57:22;0.55;;;0.20;;
14118;SDS011;7138;49.246;9.100;2023-01-15T05:59:48;1.30;;;0.20;;
14118;SDS011;7138;49.246;9.100;2023-01-15T06:02:14;0.95;;;0.30;;
14118;SDS011;7138;49.246;9.100;2023-01-15T06:04:40;1.95;;;0.17;;
14118;SDS011;7138;49.246;9.100;2023-01-15T06:07:06;3.45;;;0.25;;
14118;SDS011;7138;49.246;9.100;2023-01-15T06:09:31;1.42;;;0.50;;
14118;SDS011;7138;49.246;9.100;2023-01-15T06:11:57;0.82;;;0.38;;
14118;SDS011;7138;49.246;9.100;2023-01-15T06:14:24;0.98;;;0.38;;
14118;SDS011;7138;49.246;9.100;2023-01-15T06:16:50;1.58;;;0.50;;
14118;SDS011;7138;49.246;9.100;2023-01-15T06:19:16;2.00;;;0.88;;
14118;SDS011;7138;49.246;9.100;2023-01-15T06:21:42;2.35;;;0.70;;
14118;SDS011;7138;49.246;9.100;2023-01-15T06:24:08;2.42;;;0.80;;
14118;SDS011;7138;49.246;9.100;2023-01-15T06:26:36;3.20;;;0.80;;
14118;SDS011;7138;49.246;9.100;2023-01-15T06:29:03;2.30;;;0.90;;
14118;SDS011;7138;49.246;9.100;2023-01-15T06:31:30;5.15;;;0.82;;
14118;SDS011;7138;49.246;9.100;2023-01-15T06:33:56;2.22;;;0.63;;
14118;SDS011;7138;49.246;9.100;2023-01-15T06:36:23;1.63;;;0.68;;
14118;SDS011;7138;49.246;9.100;2023-01-15T06:38:51;1.73;;;0.60;;
14118;SDS011;7138;49.246;9.100;2023-01-15T06:41:18;2.75;;;0.73;;
14118;SDS011;7138;49.246;9.100;2023-01-15T06:44:04;2.35;;;1.20;;
14118;SDS011;7138;49.246;9.100;2023-01-15T06:46:51;1.90;;;0.80;;
14118;SDS011;7138;49.246;9.100;2023-01-15T06:49:36;1.85;;;0.70;;
14118;SDS011;7138;49.246;9.100;2023-01-15T06:52:04;2.60;;;0.95;;
14118;SDS011;7138;49.246;9.100;2023-01-15T06:54:31;1.38;;;0.43;;
14118;SDS011;7138;49.246;9.100;2023-01-15T06:56:57;0.93;;;0.40;;
14118;SDS011;7138;49.246;9.100;2023-01-15T06:59:23;1.15;;;0.40;;
14118;SDS011;7138;49.246;9.100;2023-01-15T07:01:50;1.20;;;0.40;;
14118;SDS011;7138;49.246;9.100;2023-01-15T07:04:19;0.85;;;0.25;;
14118;SDS011;7138;49.246;9.100;2023-01-15T07:06:45;0.55;;;0.20;;
14118;SDS011;7138;49.246;9.100;2023-01-15T07:09:11;1.15;;;0.20;;
14118;SDS011;7138;49.246;9.100;2023-01-15T07:11:37;1.00;;;0.20;;
14118;SDS011;7138;49.246;9.100;2023-01-15T07:14:13;0.80;;;0.30;;
14118;SDS011;7138;49.246;9.100;2023-01-15T07:16:40;0.52;;;0.20;;
14118;SDS011;7138;49.246;9.100;2023-01-15T07:19:07;1.55;;;0.20;;
14118;SDS011;7138;49.246;9.100;2023-01-15T07:21:33;1.75;;;0.30;;
14118;SDS011;7138;49.246;9.100;2023-01-15T07:23:59;1.95;;;0.30;;
14118;SDS011;7138;49.246;9.100;2023-01-15T07:26:25;0.63;;;0.20;;
14118;SDS011;7138;49.246;9.100;2023-01-15T07:28:52;1.15;;;0.30;;
14118;SDS011;7138;49.246;9.100;2023-01-15T07:31:18;1.27;;;0.35;;
14118;SDS011;7138;49.246;9.100;2023-01-15T07:33:44;1.67;;;0.40;;
14118;SDS011;7138;49.246;9.100;2023-01-15T07:36:11;1.52;;;0.45;;
14118;SDS011;7138;49.246;9.100;2023-01-15T07:38:37;1.30;;;0.50;;
14118;SDS011;7138;49.246;9.100;2023-01-15T07:41:03;1.25;;;0.50;;
14118;SDS011;7138;49.246;9.100;2023-01-15T07:43:48;1.63;;;0.40;;
14118;SDS011;7138;49.246;9.100;2023-01-15T07:46:33;1.58;;;0.50;;
14118;SDS011;7138;49.246;9.100;2023-01-15T07:49:17;1.70;;;0.50;;
14118;SDS011;7138;49.246;9.100;2023-01-15T07:52:03;1.42;;;0.30;;
14118;SDS011;7138;49.246;9.100;2023-01-15T07:54:29;0.73;;;0.25;;
14118;SDS011;7138;49.246;9.100;2023-01-15T07:56:55;1.10;;;0.40;;
14118;SDS011;7138;49.246;9.100;2023-01-15T07:59:21;0.40;;;0.20;;
14118;SDS011;7138;49.246;9.100;2023-01-15T08:01:49;2.90;;;0.30;;
14118;SDS011;7138;49.246;9.100;2023-01-15T08:04:15;0.93;;;0.25;;
14118;SDS011;7138;49.246;9.100;2023-01-15T08:06:40;0.80;;;0.20;;
14118;SDS011;7138;49.246;9.100;2023-01-15T08:09:08;0.45;;;0.20;;
14118;SDS011;7138;49.246;9.100;2023-01-15T08:11:33;0.38;;;0.10;;
14118;SDS011;7138;49.246;9.100;2023-01-15T08:14:18;0.55;;;0.20;;
14118;SDS011;7138;49.246;9.100;2023-01-15T08:17:03;0.15;;;0.10;;
14118;SDS011;7138;49.246;9.100;2023-01-15T08:19:28;1.48;;;0.20;;
14118;SDS011;7138;49.246;9.100;2023-01-15T08:21:54;0.82;;;0.30;;
14118;SDS011;7138;49.246;9.100;2023-01-15T08:24:22;0.95;;;0.20;;
14118;SDS011;7138;49.246;9.100;2023-01-15T08:26:48;0.30;;;0.10;;
14118;SDS011;7138;49.246;9.100;2023-01-15T08:29:14;1.88;;;0.40;;
14118;SDS011;7138;49.246;9.100;2023-01-15T08:31:40;2.00;;;0.32;;
14118;SDS011;7138;49.246;9.100;2023-01-15T08:34:06;1.63;;;0.30;;
14118;SDS011;7138;49.246;9.100;2023-01-15T08:36:32;1.75;;;0.28;;
14118;SDS011;7138;49.246;9.100;2023-01-15T08:38:59;0.57;;;0.20;;
14118;SDS011;7138;49.246;9.100;2023-01-15T08:41:26;1.42;;;0.20;;
14118;SDS011;7138;49.246;9.100;2023-01-15T08:43:52;0.65;;;0.20;;
14118;SDS011;7138;49.246;9.100;2023-01-15T08:46:19;1.05;;;0.28;;
14118;SDS011;7138;49.246;9.100;2023-01-15T08:48:45;1.23;;;0.30;;
14118;SDS011;7138;49.246;9.100;2023-01-15T08:51:12;0.38;;;0.15;;
14118;SDS011;7138;49.246;9.100;2023-01-15T08:53:38;0.80;;;0.28;;
14118;SDS011;7138;49.246;9.100;2023-01-15T08:56:04;0.30;;;0.17;;
14118;SDS011;7138;49.246;9.100;2023-01-15T08:58:37;1.48;;;0.30;;
14118;SDS011;7138;49.246;9.100;2023-01-15T09:01:03;0.75;;;0.30;;
14118;SDS011;7138;49.246;9.100;2023-01-15T09:03:31;0.63;;;0.20;;
14118;SDS011;7138;49.246;9.100;2023-01-15T09:05:57;0.68;;;0.13;;
14118;SDS011;7138;49.246;9.100;2023-01-15T09:08:23;0.63;;;0.20;;
14118;SDS011;7138;49.246;9.100;2023-01-15T09:10:49;0.35;;;0.17;;
14118;SDS011;7138;49.246;9.100;2023-01-15T09:13:15;0.25;;;0.10;;
14118;SDS011;7138;49.246;9.100;2023-01-15T09:15:42;0.47;;;0.10;;
14118;SDS011;7138;49.246;9.100;2023-01-15T09:18:08;1.73;;;0.20;;
14118;SDS011;7138;49.246;9.100;2023-01-15T09:20:36;0.68;;;0.22;;
14118;SDS011;7138;49.246;9.100;2023-01-15T09:23:02;1.17;;;0.28;;
14118;SDS011;7138;49.246;9.100;2023-01-15T09:25:29;1.38;;;0.40;;
14118;SDS011;7138;49.246;9.100;2023-01-15T09:27:55;1.17;;;0.20;;
14118;SDS011;7138;49.246;9.100;2023-01-15T09:30:21;0.65;;;0.20;;
14118;SDS011;7138;49.246;9.100;2023-01-15T09:32:48;0.75;;;0.30;;
14118;SDS011;7138;49.246;9.100;2023-01-15T09:35:14;1.20;;;0.30;;
14118;SDS011;7138;49.246;9.100;2023-01-15T09:37:40;0.38;;;0.20;;
14118;SDS011;7138;49.246;9.100;2023-01-15T09:40:07;0.80;;;0.28;;
14118;SDS011;7138;49.246;9.100;2023-01-15T09:42:50;0.45;;;0.20;;
14118;SDS011;7138;49.246;9.100;2023-01-15T09:45:24;1.08;;;0.28;;
14118;SDS011;7138;49.246;9.100;2023-01-15T09:48:12;1.05;;;0.30;;
14118;SDS011;7138;49.246;9.100;2023-01-15T09:50:57;0.65;;;0.20;;
14118;SDS011;7138;49.246;9.100;2023-01-15T09:53:39;0.80;;;0.30;;
14118;SDS011;7138;49.246;9.100;2023-01-15T09:56:29;1.98;;;0.20;;
14118;SDS011;7138;49.246;9.100;2023-01-15T09:59:02;0.63;;;0.20;;
14118;SDS011;7138;49.246;9.100;2023-01-15T10:01:43;2.38;;;0.30;;
14118;SDS011;7138;49.246;9.100;2023-01-15T10:04:14;0.50;;;0.20;;
14118;SDS011;7138;49.246;9.100;2023-01-15T10:06:54;1.75;;;0.30;;
14118;SDS011;7138;49.246;9.100;2023-01-15T10:09:30;0.82;;;0.20;;
14118;SDS011;7138;49.246;9.100;2023-01-15T10:12:03;1.30;;;0.30;;
14118;SDS011;7138;49.246;9.100;2023-01-15T10:14:59;0.98;;;0.20;;
14118;SDS011;7138;49.246;9.100;2023-01-15T10:17:39;1.00;;;0.20;;
14118;SDS011;7138;49.246;9.100;2023-01-15T10:22:49;1.95;;;0.70;;
14118;SDS011;7138;49.246;9.100;2023-01-15T10:25:43;1.02;;;0.30;;
14118;SDS011;7138;49.246;9.100;2023-01-15T10:28:16;3.00;;;0.38;;
14118;SDS011;7138;49.246;9.100;2023-01-15T10:30:50;0.93;;;0.30;;
14118;SDS011;7138;49.246;9.100;2023-01-15T10:36:27;1.33;;;0.35;;
14118;SDS011;7138;49.246;9.100;2023-01-15T10:39:02;2.13;;;0.38;;
14118;SDS011;7138;49.246;9.100;2023-01-15T10:41:44;1.17;;;0.30;;
14118;SDS011;7138;49.246;9.100;2023-01-15T10:47:10;0.95;;;0.28;;
14118;SDS011;7138;49.246;9.100;2023-01-15T10:49:41;1.42;;;0.30;;
14118;SDS011;7138;49.246;9.100;2023-01-15T10:52:13;0.90;;;0.22;;
14118;SDS011;7138;49.246;9.100;2023-01-15T10:54:50;1.60;;;0.40;;
14118;SDS011;7138;49.246;9.100;2023-01-15T10:57:25;1.17;;;0.32;;
14118;SDS011;7138;49.246;9.100;2023-01-15T11:00:07;2.58;;;0.50;;
14118;SDS011;7138;49.246;9.100;2023-01-15T11:02:38;1.45;;;0.40;;
14118;SDS011;7138;49.246;9.100;2023-01-15T11:05:11;2.53;;;0.40;;
14118;SDS011;7138;49.246;9.100;2023-01-15T11:07:43;1.50;;;0.50;;
14118;SDS011;7138;49.246;9.100;2023-01-15T11:10:13;0.90;;;0.30;;
14118;SDS011;7138;49.246;9.100;2023-01-15T11:12:44;3.90;;;0.65;;
14118;SDS011;7138;49.246;9.100;2023-01-15T11:15:36;1.63;;;0.40;;
14118;SDS011;7138;49.246;9.100;2023-01-15T11:18:22;1.52;;;0.40;;
14118;SDS011;7138;49.246;9.100;2023-01-15T11:21:11;1.55;;;0.47;;
14118;SDS011;7138;49.246;9.100;2023-01-15T11:23:41;2.60;;;1.20;;
14118;SDS011;7138;49.246;9.100;2023-01-15T11:26:08;1.25;;;0.30;;
14118;SDS011;7138;49.246;9.100;2023-01-15T11:28:41;0.82;;;0.30;;
14118;SDS011;7138;49.246;9.100;2023-01-15T11:31:10;1.58;;;0.30;;
14118;SDS011;7138;49.246;9.100;2023-01-15T11:33:38;0.90;;;0.20;;
14118;SDS011;7138;49.246;9.100;2023-01-15T11:36:18;1.73;;;0.35;;
14118;SDS011;7138;49.246;9.100;2023-01-15T11:38:48;0.98;;;0.30;;
14118;SDS011;7138;49.246;9.100;2023-01-15T11:41:18;1.33;;;0.30;;
14118;SDS011;7138;49.246;9.100;2023-01-15T11:43:57;1.90;;;0.43;;
14118;SDS011;7138;49.246;9.100;2023-01-15T11:46:44;1.35;;;0.30;;
14118;SDS011;7138;49.246;9.100;2023-01-15T11:49:29;3.30;;;0.30;;
14118;SDS011;7138;49.246;9.100;2023-01-15T11:52:15;3.53;;;0.60;;
14118;SDS011;7138;49.246;9.100;2023-01-15T11:54:47;1.98;;;0.52;;
14118;SDS011;7138;49.246;9.100;2023-01-15T11:57:22;5.15;;;0.50;;
14118;SDS011;7138;49.246;9.100;2023-01-15T11:59:52;2.25;;;0.50;;
14118;SDS011;7138;49.246;9.100;2023-01-15T12:02:20;1.73;;;0.60;;
14118;SDS011;7138;49.246;9.100;2023-01-15T12:05:18;2.80;;;0.80;;
14118;SDS011;7138;49.246;9.100;2023-01-15T12:07:48;4.47;;;0.70;;
14118;SDS011;7138;49.246;9.100;2023-01-15T12:10:20;2.50;;;0.65;;
14118;SDS011;7138;49.246;9.100;2023-01-15T12:13:19;1.77;;;0.50;;
14118;SDS011;7138;49.246;9.100;2023-01-15T12:16:01;2.63;;;0.68;;
14118;SDS011;7138;49.246;9.100;2023-01-15T12:27:15;2.08;;;0.50;;
14118;SDS011;7138;49.246;9.100;2023-01-15T12:30:03;3.22;;;0.50;;
14118;SDS011;7138;49.246;9.100;2023-01-15T12:32:46;3.65;;;0.70;;
14118;SDS011;7138;49.246;9.100;2023-01-15T12:35:26;2.83;;;0.50;;
14118;SDS011;7138;49.246;9.100;2023-01-15T12:37:55;4.68;;;0.70;;
14118;SDS011;7138;49.246;9.100;2023-01-15T12:40:36;2.80;;;0.50;;
14118;SDS011;7138;49.246;9.100;2023-01-15T12:43:14;2.45;;;0.52;;
14118;SDS011;7138;49.246;9.100;2023-01-15T12:46:08;2.75;;;0.50;;
14118;SDS011;7138;49.246;9.100;2023-01-15T12:48:40;3.30;;;0.52;;
14118;SDS011;7138;49.246;9.100;2023-01-15T12:51:17;3.05;;;0.43;;
14118;SDS011;7138;49.246;9.100;2023-01-15T12:53:53;4.25;;;0.70;;
14118;SDS011;7138;49.246;9.100;2023-01-15T12:56:29;3.00;;;1.08;;
14118;SDS011;7138;49.246;9.100;2023-01-15T12:59:13;1.98;;;0.65;;
14118;SDS011;7138;49.246;9.100;2023-01-15T13:01:49;3.35;;;0.70;;
14118;SDS011;7138;49.246;9.100;2023-01-15T13:04:23;2.97;;;0.70;;
14118;SDS011;7138;49.246;9.100;2023-01-15T13:07:00;4.97;;;0.70;;
14118;SDS011;7138;49.246;9.100;2023-01-15T13:09:40;4.65;;;0.65;;
14118;SDS011;7138;49.246;9.100;2023-01-15T13:12:14;3.30;;;0.60;;
14118;SDS011;7138;49.246;9.100;2023-01-15T13:14:42;3.30;;;0.70;;
14118;SDS011;7138;49.246;9.100;2023-01-15T13:17:10;2.60;;;0.60;;
14118;SDS011;7138;49.246;9.100;2023-01-15T13:20:03;4.72;;;0.70;;
14118;SDS011;7138;49.246;9.100;2023-01-15T13:22:53;3.72;;;0.60;;
14118;SDS011;7138;49.246;9.100;2023-01-15T13:25:33;3.75;;;0.50;;
14118;SDS011;7138;49.246;9.100;2023-01-15T13:28:21;3.42;;;0.60;;
14118;SDS011;7138;49.246;9.100;2023-01-15T13:31:16;2.97;;;0.60;;
14118;SDS011;7138;49.246;9.100;2023-01-15T13:34:12;2.85;;;0.50;;
14118;SDS011;7138;49.246;9.100;2023-01-15T13:36:49;3.95;;;0.70;;
14118;SDS011;7138;49.246;9.100;2023-01-15T13:39:20;5.20;;;0.70;;
14118;SDS011;7138;49.246;9.100;2023-01-15T13:41:52;4.65;;;0.90;;
14118;SDS011;7138;49.246;9.100;2023-01-15T13:44:38;3.08;;;0.70;;
14118;SDS011;7138;49.246;9.100;2023-01-15T13:47:16;4.78;;;1.10;;
14118;SDS011;7138;49.246;9.100;2023-01-15T13:49:48;2.53;;;0.60;;
14118;SDS011;7138;49.246;9.100;2023-01-15T13:52:20;3.90;;;0.60;;
14118;SDS011;7138;49.246;9.100;2023-01-15T13:54:51;3.58;;;0.50;;
14118;SDS011;7138;49.246;9.100;2023-01-15T13:57:25;5.85;;;0.63;;
14118;SDS011;7138;49.246;9.100;2023-01-15T13:59:58;4.03;;;0.70;;
14118;SDS011;7138;49.246;9.100;2023-01-15T14:02:27;2.47;;;0.63;;
14118;SDS011;7138;49.246;9.100;2023-01-15T14:04:56;5.68;;;0.82;;
14118;SDS011;7138;49.246;9.100;2023-01-15T14:07:30;3.63;;;0.70;;
14118;SDS011;7138;49.246;9.100;2023-01-15T14:10:09;4.82;;;0.80;;
14118;SDS011;7138;49.246;9.100;2023-01-15T14:12:51;4.63;;;0.60;;
14118;SDS011;7138;49.246;9.100;2023-01-15T14:15:39;2.47;;;0.68;;
14118;SDS011;7138;49.246;9.100;2023-01-15T14:18:27;4.10;;;0.50;;
14118;SDS011;7138;49.246;9.100;2023-01-15T14:21:26;4.57;;;0.90;;
14118;SDS011;7138;49.246;9.100;2023-01-15T14:24:25;3.13;;;0.60;;
14118;SDS011;7138;49.246;9.100;2023-01-15T14:27:38;4.97;;;0.60;;
14118;SDS011;7138;49.246;9.100;2023-01-15T14:30:28;2.90;;;0.40;;
14118;SDS011;7138;49.246;9.100;2023-01-15T14:33:17;3.03;;;0.60;;
14118;SDS011;7138;49.246;9.100;2023-01-15T14:35:56;5.63;;;0.68;;
14118;SDS011;7138;49.246;9.100;2023-01-15T14:38:34;7.72;;;0.65;;
14118;SDS011;7138;49.246;9.100;2023-01-15T14:41:02;4.53;;;0.70;;
14118;SDS011;7138;49.246;9.100;2023-01-15T14:43:31;5.72;;;0.68;;
14118;SDS011;7138;49.246;9.100;2023-01-15T14:46:08;2.75;;;0.85;;
14118;SDS011;7138;49.246;9.100;2023-01-15T14:48:47;3.65;;;0.80;;
14118;SDS011;7138;49.246;9.100;2023-01-15T14:51:13;2.92;;;0.60;;
14118;SDS011;7138;49.246;9.100;2023-01-15T14:53:46;5.38;;;0.80;;
14118;SDS011;7138;49.246;9.100;2023-01-15T14:56:18;3.97;;;0.50;;
14118;SDS011;7138;49.246;9.100;2023-01-15T14:58:49;5.10;;;0.90;;
14118;SDS011;7138;49.246;9.100;2023-01-15T15:04:12;5.90;;;1.13;;
14118;SDS011;7138;49.246;9.100;2023-01-15T15:06:57;6.15;;;0.70;;
14118;SDS011;7138;49.246;9.100;2023-01-15T15:09:28;3.22;;;0.70;;
14118;SDS011;7138;49.246;9.100;2023-01-15T15:12:13;1.77;;;0.50;;
14118;SDS011;7138;49.246;9.100;2023-01-15T15:15:00;3.22;;;0.50;;
14118;SDS011;7138;49.246;9.100;2023-01-15T15:17:36;2.60;;;0.47;;
14118;SDS011;7138;49.246;9.100;2023-01-15T15:20:26;2.85;;;0.60;;
14118;SDS011;7138;49.246;9.100;2023-01-15T15:23:09;2.85;;;0.52;;
14118;SDS011;7138;49.246;9.100;2023-01-15T15:25:41;5.15;;;1.08;;
14118;SDS011;7138;49.246;9.100;2023-01-15T15:28:18;5.10;;;1.08;;
14118;SDS011;7138;49.246;9.100;2023-01-15T15:30:44;5.03;;;0.90;;
14118;SDS011;7138;49.246;9.100;2023-01-15T15:33:11;2.47;;;0.82;;
14118;SDS011;7138;49.246;9.100;2023-01-15T15:35:44;3.38;;;0.90;;
14118;SDS011;7138;49.246;9.100;2023-01-15T15:38:15;3.25;;;0.80;;
14118;SDS011;7138;49.246;9.100;2023-01-15T15:40:45;4.85;;;0.95;;
14118;SDS011;7138;49.246;9.100;2023-01-15T15:43:16;5.57;;;1.33;;
14118;SDS011;7138;49.246;9.100;2023-01-15T15:46:19;2.10;;;0.52;;
14118;SDS011;7138;49.246;9.100;2023-01-15T15:49:08;2.20;;;0.60;;
14118;SDS011;7138;49.246;9.100;2023-01-15T15:51:37;3.53;;;0.98;;
14118;SDS011;7138;49.246;9.100;2023-01-15T15:54:07;6.00;;;1.10;;